createdAt,value
2022-11-22T00:00:12.097Z,0.50
2022-11-22T00:02:41.246Z,0.40
2022-11-22T00:05:10.547Z,0.50
2022-11-22T00:07:39.742Z,0.50
2022-11-22T00:10:10.579Z,0.50
2022-11-22T00:12:40.394Z,0.50
2022-11-22T00:15:12.035Z,0.50
2022-11-22T00:17:41.195Z,0.50
2022-11-22T00:20:12.355Z,0.40
2022-11-22T00:22:44.839Z,0.40
2022-11-22T00:25:15.356Z,0.50
2022-11-22T00:27:44.263Z,0.50
2022-11-22T00:30:14.922Z,0.50
2022-11-22T00:32:45.039Z,0.40
2022-11-22T00:35:14.195Z,0.40
2022-11-22T00:37:43.115Z,0.40
2022-11-22T00:40:12.925Z,0.40
2022-11-22T00:42:41.877Z,0.40
2022-11-22T00:45:12.390Z,0.40
2022-11-22T00:47:42.821Z,0.40
2022-11-22T00:50:11.893Z,0.30
2022-11-22T00:52:40.811Z,0.30
2022-11-22T00:55:10.086Z,0.40
2022-11-22T00:57:38.956Z,0.40
2022-11-22T01:00:09.255Z,0.40
2022-11-22T01:02:38.142Z,0.40
2022-11-22T01:05:08.988Z,0.30
2022-11-22T01:07:38.080Z,0.30
2022-11-22T01:10:07.890Z,0.30
2022-11-22T01:12:36.865Z,0.20
2022-11-22T01:15:06.722Z,0.20
2022-11-22T01:17:35.600Z,0.10
2022-11-22T01:20:04.975Z,0.10
2022-11-22T01:22:35.357Z,0.10
2022-11-22T01:25:04.156Z,0.10
2022-11-22T01:27:32.909Z,0.10
2022-11-22T01:30:01.888Z,0.20
2022-11-22T01:32:30.894Z,0.30
2022-11-22T01:35:00.267Z,0.30
2022-11-22T01:37:29.236Z,0.20
2022-11-22T01:39:59.866Z,0.20
2022-11-22T01:42:46.042Z,0.10
2022-11-22T01:45:40.768Z,0.10
2022-11-22T01:48:21.693Z,0.10
2022-11-22T01:50:55.381Z,0.10
2022-11-22T01:53:27.431Z,0.10
2022-11-22T01:56:01.378Z,0.10
2022-11-22T01:58:33.630Z,0.10
2022-11-22T02:01:03.465Z,0.20
2022-11-22T02:03:34.855Z,0.20
2022-11-22T02:06:04.534Z,0.20
2022-11-22T02:08:39.836Z,0.20
2022-11-22T02:11:19.130Z,0.20
2022-11-22T02:13:52.304Z,0.10
2022-11-22T02:16:43.776Z,0.20
2022-11-22T02:19:40.887Z,0.20
2022-11-22T02:22:37.931Z,0.10
2022-11-22T02:25:32.161Z,0.10
2022-11-22T02:28:22.931Z,0.20
2022-11-22T02:31:40.813Z,0.10
2022-11-22T02:34:30.183Z,0.20
2022-11-22T02:37:23.789Z,0.10
2022-11-22T02:40:16.629Z,0.20
2022-11-22T02:43:09.318Z,0.20
2022-11-22T02:46:05.240Z,0.10
2022-11-22T02:48:54.597Z,0.10
2022-11-22T02:51:43.942Z,0.20
2022-11-22T02:54:33.226Z,0.10
2022-11-22T02:57:22.521Z,0.10
2022-11-22T03:00:13.431Z,0.00
2022-11-22T03:03:04.034Z,-0.20
2022-11-22T03:05:54.187Z,-0.10
2022-11-22T03:08:44.698Z,-0.10
2022-11-22T03:11:33.907Z,-0.10
2022-11-22T03:14:23.537Z,-0.20
2022-11-22T03:17:14.511Z,-0.20
2022-11-22T03:20:06.482Z,-0.20
2022-11-22T03:22:56.300Z,-0.20
2022-11-22T03:25:46.160Z,-0.20
2022-11-22T03:28:35.380Z,-0.20
2022-11-22T03:31:24.632Z,-0.10
2022-11-22T03:34:14.581Z,-0.10
2022-11-22T03:37:05.400Z,-0.10
2022-11-22T03:39:54.829Z,-0.20
2022-11-22T03:42:44.165Z,-0.10
2022-11-22T03:45:33.908Z,-0.10
2022-11-22T03:48:23.092Z,-0.10
2022-11-22T03:51:12.602Z,-0.10
2022-11-22T03:54:03.285Z,-0.20
2022-11-22T03:56:52.548Z,-0.10
2022-11-22T03:59:41.825Z,-0.10
2022-11-22T04:02:31.061Z,-0.10
2022-11-22T04:05:20.360Z,0.00
2022-11-22T04:08:09.649Z,0.00
2022-11-22T04:11:00.460Z,-0.10
2022-11-22T04:14:07.170Z,0.00
2022-11-22T04:16:56.330Z,0.00
2022-11-22T04:20:05.771Z,0.00
2022-11-22T04:22:57.560Z,0.10
2022-11-22T04:25:48.253Z,-0.10
2022-11-22T04:29:08.021Z,0.00
2022-11-22T04:32:05.889Z,0.00
2022-11-22T04:34:55.070Z,0.10
2022-11-22T04:37:44.748Z,0.00
2022-11-22T04:40:34.069Z,0.00
2022-11-22T04:43:42.377Z,0.00
2022-11-22T04:46:33.787Z,0.00
2022-11-22T04:49:23.069Z,0.00
2022-11-22T04:52:29.574Z,-0.10
2022-11-22T04:55:18.810Z,-0.20
2022-11-22T04:58:07.996Z,-0.30
2022-11-22T05:00:57.391Z,-0.20
2022-11-22T05:03:48.033Z,-0.20
2022-11-22T05:06:38.241Z,-0.20
2022-11-22T05:09:27.673Z,-0.20
2022-11-22T05:12:17.152Z,-0.10
2022-11-22T05:15:07.517Z,-0.20
2022-11-22T05:17:56.802Z,-0.20
2022-11-22T05:20:48.129Z,-0.20
2022-11-22T05:23:56.071Z,-0.10
2022-11-22T05:26:45.333Z,-0.10
2022-11-22T05:29:34.472Z,-0.10
2022-11-22T05:32:23.752Z,-0.10
2022-11-22T05:35:12.990Z,-0.10
2022-11-22T05:38:03.718Z,-0.10
2022-11-22T05:40:52.961Z,-0.10
2022-11-22T05:43:42.850Z,-0.10
2022-11-22T05:46:32.839Z,-0.10
2022-11-22T05:49:22.054Z,-0.30
2022-11-22T05:52:11.332Z,-0.30
2022-11-22T05:55:02.615Z,-0.30
2022-11-22T05:57:51.811Z,-0.30
2022-11-22T06:00:41.025Z,-0.30
2022-11-22T06:03:30.334Z,-0.20
2022-11-22T06:06:19.722Z,-0.20
2022-11-22T06:09:10.049Z,-0.30
2022-11-22T06:12:00.939Z,-0.20
2022-11-22T06:14:50.847Z,-0.20
2022-11-22T06:17:40.248Z,-0.10
2022-11-22T06:20:29.659Z,-0.10
2022-11-22T06:23:19.037Z,-0.10
2022-11-22T06:26:10.637Z,-0.10
2022-11-22T06:29:01.557Z,-0.10
2022-11-22T06:31:50.846Z,-0.10
2022-11-22T06:34:40.339Z,-0.20
2022-11-22T06:37:29.996Z,-0.10
2022-11-22T06:40:19.379Z,-0.10
2022-11-22T06:43:08.798Z,-0.10
2022-11-22T06:46:00.123Z,0.00
2022-11-22T06:48:50.200Z,0.00
2022-11-22T06:51:41.332Z,0.00
2022-11-22T06:54:30.917Z,0.10
2022-11-22T06:57:22.456Z,0.20
2022-11-22T07:00:14.105Z,0.20
2022-11-22T07:03:05.446Z,0.20
2022-11-22T07:05:54.857Z,0.20
2022-11-22T07:08:45.138Z,0.20
2022-11-22T07:11:36.439Z,0.20
2022-11-22T07:14:25.947Z,0.30
2022-11-22T07:17:15.256Z,0.30
2022-11-22T07:20:07.295Z,0.40
2022-11-22T07:22:56.584Z,0.30
2022-11-22T07:25:46.802Z,0.30
2022-11-22T07:28:36.174Z,0.30
2022-11-22T07:31:26.456Z,0.40
2022-11-22T07:34:15.914Z,0.40
2022-11-22T07:37:09.183Z,0.50
2022-11-22T07:39:58.966Z,0.60
2022-11-22T07:42:48.575Z,0.60
2022-11-22T07:45:37.909Z,0.60
2022-11-22T07:48:27.296Z,0.70
2022-11-22T07:51:16.758Z,0.80
2022-11-22T07:54:07.594Z,1.00
2022-11-22T07:56:57.054Z,0.90
2022-11-22T07:59:46.476Z,1.00
2022-11-22T08:02:37.698Z,1.00
2022-11-22T08:05:27.621Z,1.10
2022-11-22T08:08:16.907Z,1.20
2022-11-22T08:11:08.248Z,1.20
2022-11-22T08:13:57.676Z,1.30
2022-11-22T08:16:47.021Z,1.10
2022-11-22T08:19:36.345Z,1.20
2022-11-22T08:22:25.664Z,1.10
2022-11-22T08:25:15.011Z,1.10
2022-11-22T08:28:05.938Z,1.20
2022-11-22T08:31:02.929Z,1.20
2022-11-22T08:33:55.193Z,1.30
2022-11-22T08:36:44.506Z,1.50
2022-11-22T08:39:33.828Z,1.60
2022-11-22T08:42:23.245Z,1.50
2022-11-22T08:45:14.269Z,1.50
2022-11-22T08:48:03.876Z,1.60
2022-11-22T08:50:54.470Z,1.60
2022-11-22T08:53:45.320Z,1.80
2022-11-22T08:56:34.500Z,1.80
2022-11-22T08:59:23.898Z,1.80
2022-11-22T09:02:14.688Z,1.60
2022-11-22T09:05:04.124Z,1.90
2022-11-22T09:11:03.506Z,2.10
2022-11-22T09:13:52.865Z,2.10
2022-11-22T09:16:42.315Z,2.00
2022-11-22T09:19:33.414Z,2.10
2022-11-22T09:22:28.694Z,2.20
2022-11-22T09:25:25.942Z,2.20
2022-11-22T09:28:22.933Z,2.10
2022-11-22T09:31:22.425Z,2.10
2022-11-22T09:34:11.697Z,2.20
2022-11-22T09:37:02.765Z,2.30
2022-11-22T09:39:52.170Z,2.10
2022-11-22T09:43:05.652Z,2.20
2022-11-22T09:46:12.936Z,2.20
2022-11-22T09:49:26.194Z,2.20
2022-11-22T09:52:26.150Z,2.10
2022-11-22T09:55:25.060Z,2.10
2022-11-22T09:58:26.031Z,2.20
2022-11-22T10:01:20.146Z,2.20
2022-11-22T10:04:16.268Z,2.40
2022-11-22T10:07:12.374Z,2.40
2022-11-22T10:10:06.759Z,2.50
2022-11-22T10:13:03.970Z,2.50
2022-11-22T10:16:00.045Z,2.40
2022-11-22T10:18:58.331Z,2.50
2022-11-22T10:21:48.811Z,2.40
2022-11-22T10:24:38.189Z,2.40
2022-11-22T10:27:33.166Z,2.50
2022-11-22T10:30:23.395Z,2.50
2022-11-22T10:33:18.953Z,2.40
2022-11-22T10:36:28.480Z,2.60
2022-11-22T10:39:42.867Z,2.60
2022-11-22T10:42:59.657Z,2.10
2022-11-22T10:45:54.699Z,2.20
2022-11-22T10:48:50.986Z,2.40
2022-11-22T10:51:50.950Z,2.40
2022-11-22T10:54:45.661Z,2.60
2022-11-22T10:57:42.421Z,2.60
2022-11-22T11:00:36.461Z,2.70
2022-11-22T11:03:34.405Z,2.90
2022-11-22T11:06:43.574Z,3.20
2022-11-22T11:12:57.532Z,3.00
2022-11-22T11:15:56.011Z,3.00
2022-11-22T11:18:49.794Z,2.90
2022-11-22T11:21:39.491Z,2.90
2022-11-22T11:24:31.096Z,2.80
2022-11-22T11:27:22.635Z,2.70
2022-11-22T11:30:14.297Z,2.60
2022-11-22T11:33:22.464Z,2.50
2022-11-22T11:36:15.893Z,2.30
2022-11-22T11:39:05.523Z,2.60
2022-11-22T11:41:54.873Z,2.60
2022-11-22T11:44:44.225Z,2.60
2022-11-22T11:47:35.751Z,2.50
2022-11-22T11:50:29.225Z,2.50
2022-11-22T11:53:26.996Z,2.70
2022-11-22T11:56:36.458Z,2.60
2022-11-22T11:59:33.445Z,2.60
2022-11-22T12:02:26.395Z,2.60
2022-11-22T12:05:30.036Z,2.70
2022-11-22T12:08:31.501Z,2.60
2022-11-22T12:11:28.256Z,2.50
2022-11-22T12:14:20.764Z,2.50
2022-11-22T12:17:19.880Z,2.10
2022-11-22T12:20:13.892Z,2.20
2022-11-22T12:23:14.513Z,2.20
2022-11-22T12:26:04.014Z,2.20
2022-11-22T12:28:54.782Z,2.30
2022-11-22T12:31:50.000Z,2.20
2022-11-22T12:34:48.780Z,2.10
2022-11-22T12:37:42.962Z,2.20
2022-11-22T12:40:41.230Z,2.20
2022-11-22T12:43:36.431Z,1.90
2022-11-22T12:46:30.153Z,1.90
2022-11-22T12:49:29.528Z,1.90
2022-11-22T12:52:27.019Z,1.90
2022-11-22T12:55:21.370Z,1.80
2022-11-22T12:58:23.002Z,1.80
2022-11-22T13:01:19.457Z,1.60
2022-11-22T13:04:20.844Z,1.40
2022-11-22T13:07:17.411Z,1.40
2022-11-22T13:10:16.207Z,1.30
2022-11-22T13:13:08.060Z,1.40
2022-11-22T13:16:03.152Z,1.40
2022-11-22T13:18:57.693Z,1.30
2022-11-22T13:22:06.480Z,1.20
2022-11-22T13:25:14.695Z,1.20
2022-11-22T13:28:11.054Z,1.10
2022-11-22T13:31:16.143Z,1.10
2022-11-22T13:34:06.830Z,1.20
2022-11-22T13:37:01.682Z,1.10
2022-11-22T13:39:52.079Z,1.20
2022-11-22T13:42:41.381Z,1.10
2022-11-22T13:45:48.221Z,1.10
2022-11-22T13:49:14.988Z,1.10
2022-11-22T13:52:06.167Z,1.00
2022-11-22T13:55:37.464Z,1.00
2022-11-22T13:58:54.989Z,1.00
2022-11-22T14:02:00.436Z,1.10
2022-11-22T14:04:56.611Z,1.10
2022-11-22T14:07:46.516Z,1.00
2022-11-22T14:10:39.948Z,0.90
2022-11-22T14:13:39.270Z,0.90
2022-11-22T14:16:43.859Z,0.90
2022-11-22T14:19:44.037Z,0.90
2022-11-22T14:22:49.127Z,0.80
2022-11-22T14:25:59.447Z,0.70
2022-11-22T14:29:42.510Z,0.70
2022-11-22T14:33:00.014Z,0.70
2022-11-22T14:36:18.037Z,0.60
2022-11-22T14:39:40.504Z,0.50
2022-11-22T14:43:03.174Z,0.40
2022-11-22T14:45:54.763Z,0.40
2022-11-22T14:48:51.974Z,0.40
2022-11-22T14:51:41.649Z,0.50
2022-11-22T14:54:40.358Z,0.40
2022-11-22T14:57:34.301Z,0.50
2022-11-22T15:00:26.994Z,0.50
2022-11-22T15:03:37.624Z,0.30
2022-11-22T15:09:18.604Z,0.30
2022-11-22T15:10:04.287Z,0.30
2022-11-22T15:13:22.949Z,0.30
2022-11-22T15:58:30.669Z,0.10
2022-11-22T16:01:21.009Z,0.10
2022-11-22T16:04:24.088Z,0.20
2022-11-22T16:07:27.578Z,0.20
2022-11-22T16:10:22.545Z,0.20
2022-11-22T16:13:23.138Z,0.10
2022-11-22T16:16:27.702Z,0.20
2022-11-22T16:19:24.942Z,0.20
2022-11-22T16:22:30.843Z,0.00
2022-11-22T16:25:23.298Z,0.10
2022-11-22T16:28:26.631Z,0.10
2022-11-22T16:31:22.719Z,0.00
2022-11-22T16:34:15.038Z,0.20
2022-11-22T16:37:26.834Z,0.20
2022-11-22T16:40:16.640Z,0.20
2022-11-22T16:43:09.733Z,0.10
2022-11-22T16:45:59.384Z,0.20
2022-11-22T16:48:52.280Z,0.20
2022-11-22T16:51:45.316Z,0.10
2022-11-22T16:54:36.309Z,0.20
2022-11-22T16:57:25.621Z,0.00
2022-11-22T17:00:16.222Z,0.00
2022-11-22T17:03:05.691Z,0.10
2022-11-22T17:05:54.932Z,0.00
2022-11-22T17:08:44.170Z,0.00
2022-11-22T17:11:36.407Z,-0.10
2022-11-22T17:14:26.055Z,-0.30
2022-11-22T17:17:15.798Z,-0.30
2022-11-22T17:20:05.571Z,-0.40
2022-11-22T17:22:55.271Z,-0.50
2022-11-22T17:25:44.978Z,-0.40
2022-11-22T17:28:35.811Z,-0.30
2022-11-22T17:31:26.018Z,-0.50
2022-11-22T17:34:15.680Z,-0.50
2022-11-22T17:37:05.372Z,-0.60
2022-11-22T17:39:54.980Z,-0.60
2022-11-22T17:42:44.235Z,-0.70
2022-11-22T17:45:37.184Z,-0.70
2022-11-22T17:48:26.420Z,-0.60
2022-11-22T17:51:16.168Z,-0.70
2022-11-22T17:54:06.414Z,-0.80
2022-11-22T17:56:56.297Z,-0.80
2022-11-22T17:59:45.975Z,-0.70
2022-11-22T18:02:37.500Z,-0.80
2022-11-22T18:05:27.136Z,-0.80
2022-11-22T18:08:16.748Z,-0.80
2022-11-22T18:11:06.645Z,-1.00
2022-11-22T18:13:56.507Z,-1.10
2022-11-22T18:16:46.003Z,-1.00
2022-11-22T18:19:37.708Z,-1.00
2022-11-22T18:22:27.834Z,-1.00
2022-11-22T18:25:17.618Z,-1.00
2022-11-22T18:28:07.591Z,-1.00
2022-11-22T18:30:57.290Z,-1.00
2022-11-22T18:33:46.947Z,-0.90
2022-11-22T18:36:54.566Z,-1.00
2022-11-22T18:39:44.697Z,-0.90
2022-11-22T18:42:35.686Z,-0.90
2022-11-22T18:45:31.015Z,-1.00
2022-11-22T18:48:21.110Z,-1.10
2022-11-22T18:51:18.488Z,-1.10
2022-11-22T18:54:10.800Z,-1.10
2022-11-22T18:57:00.693Z,-1.20
2022-11-22T18:59:49.988Z,-1.20
2022-11-22T19:02:40.797Z,-1.20
2022-11-22T19:05:30.566Z,-1.30
2022-11-22T19:08:20.527Z,-1.30
2022-11-22T19:11:12.358Z,-1.20
2022-11-22T19:14:02.228Z,-1.20
2022-11-22T19:16:51.934Z,-1.30
2022-11-22T19:19:42.035Z,-1.20
2022-11-22T19:22:31.730Z,-1.10
2022-11-22T19:25:21.495Z,-1.20
2022-11-22T19:28:14.064Z,-1.20
2022-11-22T19:31:04.142Z,-1.30
2022-11-22T19:33:54.917Z,-1.30
2022-11-22T19:36:44.871Z,-1.30
2022-11-22T19:39:34.654Z,-1.30
2022-11-22T19:42:24.462Z,-1.20
2022-11-22T19:45:15.748Z,-1.20
2022-11-22T19:48:05.513Z,-1.20
2022-11-22T19:54:00.308Z,-1.20
2022-11-22T19:56:49.968Z,-1.30
2022-11-22T19:59:39.986Z,-1.20
2022-11-22T20:02:31.347Z,-1.30
2022-11-22T20:05:21.315Z,-1.30
2022-11-22T20:08:11.995Z,-1.20
2022-11-22T20:11:05.759Z,-1.40
2022-11-22T20:13:55.701Z,-1.40
2022-11-22T20:16:45.958Z,-1.50
2022-11-22T20:19:37.833Z,-1.50
2022-11-22T20:22:27.512Z,-1.50
2022-11-22T20:25:17.481Z,-1.40
2022-11-22T20:28:07.419Z,-1.60
2022-11-22T20:31:06.737Z,-1.60
2022-11-22T20:33:57.412Z,-1.50
2022-11-22T20:36:48.663Z,-1.50
2022-11-22T20:39:38.466Z,-1.40
2022-11-22T20:42:35.984Z,-1.40
2022-11-22T20:45:25.275Z,-1.40
2022-11-22T20:48:16.657Z,-1.30
2022-11-22T20:51:09.094Z,-1.40
2022-11-22T20:54:00.456Z,-1.30
2022-11-22T20:56:50.124Z,-1.30
2022-11-22T20:59:39.422Z,-1.30
2022-11-22T21:02:28.712Z,-1.50
2022-11-22T21:05:18.376Z,-1.40
2022-11-22T21:08:08.659Z,-1.40
2022-11-22T21:11:07.096Z,-1.50
2022-11-22T21:13:58.272Z,-1.70
2022-11-22T21:16:47.455Z,-1.60
2022-11-22T21:19:37.093Z,-1.70
2022-11-22T21:22:31.481Z,-1.70
2022-11-22T21:25:21.324Z,-1.60
2022-11-22T21:28:12.024Z,-1.60
2022-11-22T21:31:01.408Z,-1.60
2022-11-22T21:33:51.902Z,-1.50
2022-11-22T21:36:41.146Z,-1.50
2022-11-22T21:39:30.383Z,-1.50
2022-11-22T21:42:19.571Z,-1.40
2022-11-22T21:45:11.657Z,-1.50
2022-11-22T21:48:01.388Z,-1.50
2022-11-22T21:50:53.724Z,-1.40
2022-11-22T21:53:42.904Z,-1.50
2022-11-22T21:56:32.308Z,-1.50
2022-11-22T21:59:21.588Z,-1.60
2022-11-22T22:02:12.134Z,-1.60
2022-11-22T22:05:01.354Z,-1.50
2022-11-22T22:07:52.916Z,-1.50
2022-11-22T22:10:42.542Z,-1.50
2022-11-22T22:13:31.760Z,-1.50
2022-11-22T22:16:23.573Z,-1.60
2022-11-22T22:19:14.571Z,-1.60
2022-11-22T22:22:03.658Z,-1.50
2022-11-22T22:24:53.076Z,-1.60
2022-11-22T22:27:42.308Z,-1.70
2022-11-22T22:30:32.340Z,-1.70
2022-11-22T22:33:21.575Z,-1.50
2022-11-22T22:36:12.884Z,-1.50
2022-11-22T22:39:02.194Z,-1.50
2022-11-22T22:41:51.303Z,-1.40
2022-11-22T22:44:40.617Z,-1.50
2022-11-22T22:47:32.284Z,-1.60
2022-11-22T22:50:21.935Z,-1.60
2022-11-22T22:53:12.873Z,-1.60
2022-11-22T22:56:02.803Z,-1.50
2022-11-22T22:58:55.809Z,-1.70
2022-11-22T23:01:45.017Z,-1.70
2022-11-22T23:04:34.239Z,-1.70
2022-11-22T23:07:23.395Z,-1.70
2022-11-22T23:10:14.166Z,-1.80
2022-11-22T23:13:03.397Z,-1.70
2022-11-22T23:15:58.450Z,-1.60
2022-11-22T23:18:47.919Z,-1.50
2022-11-22T23:21:37.890Z,-1.60
2022-11-22T23:24:27.033Z,-1.50
2022-11-22T23:27:17.731Z,-1.40
2022-11-22T23:30:08.223Z,-1.50
2022-11-22T23:32:58.164Z,-1.50
2022-11-22T23:35:47.369Z,-1.50
2022-11-22T23:38:36.932Z,-1.50
2022-11-22T23:41:26.680Z,-1.50
2022-11-22T23:44:17.250Z,-1.50
2022-11-22T23:47:06.586Z,-1.50
2022-11-22T23:49:55.848Z,-1.50
2022-11-22T23:52:45.537Z,-1.60
2022-11-22T23:55:34.898Z,-1.60
2022-11-22T23:58:23.991Z,-1.50
